Time;durP1;ratioP1;P1;durP2;ratioP2;P2;SDS_P1;SDS_P2;PMS_P1;PMS_P2;Temp;Humidity;BMP_temperature;BMP_pressure;BME280_temperature;BME280_humidity;BME280_pressure;Samples;Min_cycle;Max_cycle;Signal;HPM_P1;HPM_P2
2023/03/11 00:02:18;;;;;;;5.88;5.03;;;1.70;99.90;;;;;;5023123;28;20060;-60
2023/03/11 00:05:05;;;;;;;6.30;5.25;;;1.70;99.90;;;;;;5026728;28;20021;-60
2023/03/11 00:07:51;;;;;;;6.88;5.75;;;1.60;99.90;;;;;;5029297;28;20029;-61
2023/03/11 00:10:40;;;;;;;7.22;6.15;;;1.50;99.90;;;;;;5022504;28;20119;-61
2023/03/11 00:13:28;;;;;;;7.00;6.05;;;1.50;99.90;;;;;;5016458;28;20639;-59
2023/03/11 00:16:13;;;;;;;8.80;6.60;;;1.50;99.90;;;;;;5021435;28;20573;-62
2023/03/11 00:18:59;;;;;;;8.80;6.70;;;1.40;99.90;;;;;;5001685;28;20561;-63
2023/03/11 00:21:45;;;;;;;8.20;6.70;;;1.40;99.90;;;;;;5013857;28;20045;-62
2023/03/11 00:24:32;;;;;;;8.32;7.18;;;1.40;99.90;;;;;;5013230;28;20029;-62
2023/03/11 00:27:18;;;;;;;7.90;6.32;;;1.50;99.90;;;;;;5014789;28;20025;-60
2023/03/11 00:30:05;;;;;;;8.57;7.25;;;1.50;99.90;;;;;;5029359;28;20021;-63
2023/03/11 00:32:53;;;;;;;10.25;7.78;;;1.50;99.90;;;;;;5028141;28;20689;-61
2023/03/11 00:35:40;;;;;;;9.15;7.80;;;1.50;99.90;;;;;;5028933;28;20036;-62
2023/03/11 00:38:26;;;;;;;10.70;8.32;;;1.50;99.90;;;;;;5010725;28;20025;-63
2023/03/11 00:41:12;;;;;;;10.82;9.10;;;1.60;99.90;;;;;;5030640;28;20033;-63
2023/03/11 00:43:58;;;;;;;11.30;8.73;;;1.50;99.90;;;;;;4999466;28;20406;-62
2023/03/11 00:46:44;;;;;;;10.93;9.82;;;1.40;99.90;;;;;;5026211;28;20119;-62
2023/03/11 00:49:31;;;;;;;11.93;9.90;;;1.50;99.90;;;;;;5025406;28;20032;-64
2023/03/11 00:52:17;;;;;;;12.18;9.70;;;1.40;99.90;;;;;;5024263;28;20037;-64
2023/03/11 00:55:04;;;;;;;12.68;10.10;;;1.40;99.90;;;;;;5004770;28;20021;-65
2023/03/11 00:57:52;;;;;;;12.95;10.48;;;1.40;99.90;;;;;;5032367;28;20033;-61
2023/03/11 01:00:38;;;;;;;11.48;9.43;;;1.40;99.90;;;;;;5033925;28;20445;-59
2023/03/11 01:03:24;;;;;;;12.27;10.05;;;1.50;99.90;;;;;;5018252;28;20460;-59
2023/03/11 01:06:11;;;;;;;10.38;8.45;;;1.50;99.90;;;;;;5033918;28;20049;-61
2023/03/11 01:08:57;;;;;;;11.43;9.15;;;1.50;99.90;;;;;;5031931;28;20483;-61
2023/03/11 01:11:43;;;;;;;10.23;8.68;;;1.50;99.90;;;;;;5032084;28;20070;-60
2023/03/11 01:14:29;;;;;;;10.65;8.65;;;1.40;99.90;;;;;;5023770;28;20451;-61
2023/03/11 01:21:48;;;;;;;;;;;;;;;;;;;;;
2023/03/11 01:24:37;;;;;;;10.52;8.10;;;1.20;99.90;;;;;;4983728;28;20113;-60
2023/03/11 01:27:24;;;;;;;10.65;8.73;;;1.20;99.90;;;;;;5031630;28;20032;-59
2023/03/11 01:30:23;;;;;;;9.10;7.40;;;1.10;99.90;;;;;;5029620;28;20026;-55
2023/03/11 01:33:14;;;;;;;12.85;9.82;;;1.10;99.90;;;;;;5030634;28;20520;-59
2023/03/11 01:36:00;;;;;;;12.88;9.93;;;1.10;99.90;;;;;;5011994;28;20040;-55
2023/03/11 01:38:46;;;;;;;13.82;11.27;;;1.20;99.90;;;;;;5001265;28;20394;-57
2023/03/11 01:41:32;;;;;;;14.23;11.10;;;1.10;99.90;;;;;;5033614;28;20521;-58
2023/03/11 01:44:18;;;;;;;14.93;11.50;;;1.10;99.90;;;;;;5033185;28;20038;-58
2023/03/11 01:47:03;;;;;;;14.82;11.52;;;1.10;99.90;;;;;;5019968;28;20409;-58
2023/03/11 01:49:49;;;;;;;15.27;12.30;;;1.10;99.90;;;;;;5039049;28;20030;-64
2023/03/11 01:52:36;;;;;;;15.93;11.90;;;1.10;99.90;;;;;;5026742;28;20637;-56
2023/03/11 01:55:22;;;;;;;14.40;11.43;;;1.10;99.90;;;;;;5032744;28;20069;-58
2023/03/11 01:58:13;;;;;;;15.50;11.55;;;1.10;99.90;;;;;;5038073;28;20404;-60
2023/03/11 02:01:00;;;;;;;14.38;11.52;;;1.10;99.90;;;;;;5040183;28;20029;-56
2023/03/11 02:03:47;;;;;;;14.23;10.50;;;1.10;99.90;;;;;;5037676;28;20091;-59
2023/03/11 02:06:33;;;;;;;12.95;10.10;;;1.10;99.90;;;;;;5032025;28;20405;-58
2023/03/11 02:09:21;;;;;;;13.07;10.18;;;1.10;99.90;;;;;;5017570;28;20026;-51
2023/03/11 02:12:09;;;;;;;11.02;8.43;;;1.10;99.90;;;;;;5031270;28;20379;-56
2023/03/11 02:14:55;;;;;;;12.75;9.45;;;1.10;99.90;;;;;;5031006;28;20030;-58
2023/03/11 02:17:42;;;;;;;12.68;9.55;;;1.10;99.90;;;;;;5018237;28;20509;-55
2023/03/11 02:21:03;;;;;;;12.73;9.93;;;1.20;99.90;;;;;;5011544;28;20085;-57
2023/03/11 02:24:08;;;;;;;13.80;9.25;;;1.10;99.90;;;;;;5028146;28;20036;-56
2023/03/11 02:27:09;;;;;;;10.90;8.23;;;1.10;99.90;;;;;;5030572;28;20041;-53
2023/03/11 02:29:58;;;;;;;13.15;10.02;;;1.20;99.90;;;;;;5011691;28;20659;-54
2023/03/11 02:32:47;;;;;;;13.93;9.52;;;1.10;99.90;;;;;;5001236;28;20080;-58
2023/03/11 02:35:33;;;;;;;13.70;10.20;;;1.10;99.90;;;;;;5031157;28;20053;-54
2023/03/11 02:38:19;;;;;;;13.88;9.48;;;1.10;99.90;;;;;;5015084;28;20030;-57
2023/03/11 02:41:05;;;;;;;14.55;10.32;;;1.10;99.90;;;;;;5030910;28;20402;-55
2023/03/11 02:43:52;;;;;;;16.60;11.60;;;1.00;99.90;;;;;;5026959;28;20026;-60
2023/03/11 02:46:41;;;;;;;15.13;10.68;;;1.10;99.90;;;;;;4995430;28;20073;-57
2023/03/11 02:49:28;;;;;;;15.82;11.80;;;1.00;99.90;;;;;;4994352;28;20030;-59
2023/03/11 02:52:14;;;;;;;17.20;12.43;;;1.10;99.90;;;;;;5030214;28;20021;-60
2023/03/11 02:55:00;;;;;;;15.15;10.85;;;1.10;99.90;;;;;;5031543;28;20057;-58
2023/03/11 02:57:47;;;;;;;14.57;11.85;;;1.10;99.90;;;;;;5010690;28;20065;-62
2023/03/11 03:00:33;;;;;;;15.10;10.68;;;1.20;99.90;;;;;;5014708;28;20029;-63
2023/03/11 03:03:19;;;;;;;12.65;10.73;;;1.20;99.90;;;;;;5030021;28;20030;-65
2023/03/11 03:06:05;;;;;;;14.55;10.27;;;1.10;99.90;;;;;;5030155;28;20066;-65
2023/03/11 03:08:51;;;;;;;13.68;10.25;;;1.10;99.90;;;;;;5030214;28;20032;-56
2023/03/11 03:11:37;;;;;;;14.60;9.75;;;1.00;99.90;;;;;;5029805;28;20129;-60
2023/03/11 03:14:23;;;;;;;13.40;10.25;;;1.00;99.90;;;;;;5029822;28;20407;-60
2023/03/11 03:17:09;;;;;;;16.58;11.20;;;1.00;99.90;;;;;;5030084;28;20025;-60
2023/03/11 03:19:55;;;;;;;16.23;10.82;;;1.00;99.90;;;;;;5016445;28;20055;-56
2023/03/11 03:22:42;;;;;;;15.07;10.77;;;0.90;99.90;;;;;;5016190;28;20039;-56
2023/03/11 03:25:28;;;;;;;17.90;12.13;;;0.90;99.90;;;;;;5030158;28;20087;-59
2023/03/11 03:28:14;;;;;;;18.45;13.43;;;0.90;99.90;;;;;;5009190;28;20506;-57
2023/03/11 03:31:08;;;;;;;17.58;11.70;;;0.80;99.90;;;;;;5000236;28;20033;-60
2023/03/11 03:33:54;;;;;;;18.55;13.35;;;0.80;99.90;;;;;;5015988;28;20048;-60
2023/03/11 03:36:40;;;;;;;19.25;12.32;;;0.90;99.90;;;;;;5016398;28;20036;-57
2023/03/11 03:39:25;;;;;;;18.42;12.63;;;0.80;99.90;;;;;;5030289;28;20160;-58
2023/03/11 03:42:11;;;;;;;17.00;11.38;;;0.80;99.90;;;;;;5031434;28;20036;-59
2023/03/11 03:44:57;;;;;;;16.80;12.25;;;0.80;99.90;;;;;;5016900;28;20037;-52
2023/03/11 03:47:43;;;;;;;18.15;12.23;;;0.80;99.90;;;;;;5032037;28;20033;-51
2023/03/11 03:50:29;;;;;;;15.40;11.02;;;0.90;99.90;;;;;;5032069;28;20029;-56
2023/03/11 03:53:15;;;;;;;16.30;11.50;;;0.90;99.90;;;;;;5017597;28;20034;-62
2023/03/11 03:56:06;;;;;;;16.23;11.00;;;0.90;99.90;;;;;;5032882;28;20029;-61
2023/03/11 03:58:53;;;;;;;15.07;11.23;;;0.90;99.90;;;;;;5033501;28;20047;-60
2023/03/11 04:01:39;;;;;;;17.02;11.73;;;1.00;99.90;;;;;;5034077;28;20022;-58
2023/03/11 04:04:25;;;;;;;13.13;9.25;;;1.00;99.90;;;;;;5019515;28;20033;-59
2023/03/11 04:07:11;;;;;;;12.80;9.30;;;1.10;99.90;;;;;;5032288;28;20037;-58
2023/03/11 04:09:57;;;;;;;14.23;9.52;;;1.10;99.90;;;;;;5028071;28;20090;-60
2023/03/11 04:12:43;;;;;;;13.52;8.82;;;1.10;99.90;;;;;;5012756;28;20034;-57
2023/03/11 04:15:29;;;;;;;12.48;9.15;;;1.10;99.90;;;;;;5024113;28;20025;-57
2023/03/11 04:18:14;;;;;;;11.65;8.80;;;1.10;99.90;;;;;;5017636;28;20656;-61
2023/03/11 04:21:04;;;;;;;13.77;9.57;;;1.00;99.90;;;;;;5033441;28;20501;-61
2023/03/11 04:23:50;;;;;;;11.98;8.13;;;1.10;99.90;;;;;;5031717;28;20127;-59
2023/03/11 04:26:36;;;;;;;13.15;10.00;;;1.10;99.90;;;;;;5032429;28;20508;-60
2023/03/11 04:29:22;;;;;;;13.48;9.25;;;1.10;99.90;;;;;;5031862;28;20410;-61
2023/03/11 04:32:08;;;;;;;15.90;12.02;;;1.20;99.90;;;;;;5033470;28;20541;-61
2023/03/11 04:34:54;;;;;;;15.48;10.02;;;1.10;99.90;;;;;;5033845;28;20064;-59
2023/03/11 04:37:40;;;;;;;17.48;11.60;;;1.20;99.90;;;;;;5033285;28;20172;-57
2023/03/11 04:40:27;;;;;;;17.85;12.13;;;1.20;99.90;;;;;;5033432;28;20143;-59
2023/03/11 04:43:13;;;;;;;20.20;13.00;;;1.10;99.90;;;;;;5033109;28;20044;-57
2023/03/11 04:45:59;;;;;;;16.98;12.07;;;1.20;99.90;;;;;;5032622;28;20133;-59
2023/03/11 04:48:45;;;;;;;15.95;11.38;;;1.10;99.90;;;;;;5032894;28;20029;-57
2023/03/11 04:51:31;;;;;;;19.83;13.27;;;1.10;99.90;;;;;;5032512;28;20031;-58
2023/03/11 04:54:16;;;;;;;22.15;13.50;;;1.10;99.90;;;;;;5032768;28;20449;-57
2023/03/11 04:57:03;;;;;;;19.83;13.93;;;1.10;99.90;;;;;;5031439;28;20518;-60
2023/03/11 04:59:48;;;;;;;19.77;13.68;;;1.10;99.90;;;;;;5032637;28;20052;-58
2023/03/11 05:02:34;;;;;;;22.50;14.85;;;1.10;99.90;;;;;;5033577;28;20026;-58
2023/03/11 05:05:20;;;;;;;20.95;11.55;;;1.10;99.90;;;;;;5011313;28;20034;-56
2023/03/11 05:08:06;;;;;;;19.95;13.43;;;1.20;99.90;;;;;;5012569;28;20061;-58
2023/03/11 05:10:53;;;;;;;18.08;11.60;;;1.20;99.90;;;;;;5030789;28;20039;-58
2023/03/11 05:13:39;;;;;;;18.70;13.10;;;1.10;99.90;;;;;;5031791;28;20022;-56
2023/03/11 05:16:24;;;;;;;17.80;11.73;;;1.10;99.90;;;;;;5017792;28;20068;-58
2023/03/11 05:22:15;;;;;;;16.23;9.90;;;1.10;99.90;;;;;;5032960;28;20069;-59
2023/03/11 05:25:01;;;;;;;16.92;11.05;;;1.20;99.90;;;;;;5017795;28;20052;-58
2023/03/11 05:27:47;;;;;;;15.07;10.23;;;1.20;99.90;;;;;;5030377;28;20026;-61
2023/03/11 05:30:33;;;;;;;13.32;9.63;;;1.20;99.90;;;;;;5033537;28;20065;-60
2023/03/11 05:33:19;;;;;;;14.25;8.93;;;1.20;99.90;;;;;;5031566;28;20029;-59
2023/03/11 05:36:09;;;;;;;14.38;9.02;;;1.10;99.90;;;;;;5015244;28;20032;-60
2023/03/11 05:38:55;;;;;;;12.88;8.85;;;1.10;99.90;;;;;;5031103;28;20493;-61
2023/03/11 05:41:41;;;;;;;12.38;9.32;;;1.10;99.90;;;;;;5016894;28;20088;-60
2023/03/11 05:44:27;;;;;;;12.52;8.80;;;1.10;99.90;;;;;;5031653;28;20056;-59
2023/03/11 05:47:13;;;;;;;12.23;8.65;;;1.10;99.90;;;;;;5030829;28;20091;-60
2023/03/11 05:49:59;;;;;;;11.40;7.75;;;1.20;99.90;;;;;;5031309;28;20084;-60
2023/03/11 05:52:44;;;;;;;12.85;8.60;;;1.20;99.90;;;;;;5003328;28;20029;-59
2023/03/11 05:55:30;;;;;;;14.75;9.25;;;1.10;99.90;;;;;;5016543;28;20026;-59
2023/03/11 05:58:16;;;;;;;12.70;8.90;;;1.20;99.90;;;;;;5028963;28;20040;-58
2023/03/11 06:01:10;;;;;;;14.07;10.15;;;1.20;99.90;;;;;;5031570;28;20029;-61
2023/03/11 06:03:56;;;;;;;16.23;11.40;;;1.10;99.90;;;;;;5030126;28;20398;-60
2023/03/11 06:06:42;;;;;;;14.57;10.63;;;1.20;99.90;;;;;;5017375;28;20033;-60
2023/03/11 06:09:31;;;;;;;12.48;8.68;;;1.20;99.90;;;;;;5031544;28;20502;-62
2023/03/11 06:12:17;;;;;;;14.63;10.85;;;1.20;99.90;;;;;;5032587;28;20033;-57
2023/03/11 06:15:05;;;;;;;12.65;8.70;;;1.20;99.90;;;;;;5015097;28;20084;-60
2023/03/11 06:17:51;;;;;;;14.82;9.43;;;1.20;99.90;;;;;;5030996;28;20033;-59
2023/03/11 06:20:37;;;;;;;13.77;8.63;;;1.20;99.90;;;;;;5030490;28;20121;-58
2023/03/11 06:23:27;;;;;;;11.07;8.25;;;1.20;99.90;;;;;;5030566;28;20033;-56
2023/03/11 06:26:16;;;;;;;10.60;8.13;;;1.20;99.90;;;;;;5031248;28;20037;-62
2023/03/11 06:29:02;;;;;;;13.23;8.27;;;1.30;99.90;;;;;;5030009;28;20036;-60
2023/03/11 06:31:48;;;;;;;11.80;7.85;;;1.20;99.90;;;;;;5004645;28;20030;-60
2023/03/11 06:34:36;;;;;;;13.20;9.23;;;1.20;99.90;;;;;;5016139;28;20025;-58
2023/03/11 06:37:23;;;;;;;12.38;7.75;;;1.20;99.90;;;;;;5011706;28;20453;-59
2023/03/11 06:40:11;;;;;;;11.35;8.60;;;1.30;99.90;;;;;;5016846;28;20034;-58
2023/03/11 06:42:57;;;;;;;16.65;9.45;;;1.10;99.90;;;;;;5019250;28;20030;-60
2023/03/11 06:45:43;;;;;;;12.90;9.35;;;1.10;99.90;;;;;;5016268;28;20034;-58
2023/03/11 06:48:29;;;;;;;14.00;9.63;;;1.00;99.90;;;;;;5020232;28;20044;-58
2023/03/11 06:51:15;;;;;;;13.30;9.30;;;1.10;99.90;;;;;;5019900;28;20038;-60
2023/03/11 06:54:01;;;;;;;13.50;9.27;;;1.30;99.90;;;;;;5021496;28;20033;-57
2023/03/11 06:56:47;;;;;;;11.10;8.88;;;1.20;99.90;;;;;;5034495;28;20029;-59
2023/03/11 06:59:34;;;;;;;15.10;9.52;;;1.00;99.90;;;;;;5023538;28;20029;-55
2023/03/11 07:02:20;;;;;;;17.17;10.20;;;1.10;99.90;;;;;;5040290;28;20029;-59
2023/03/11 07:05:06;;;;;;;16.02;9.45;;;1.10;99.90;;;;;;5038463;28;20060;-58
2023/03/11 07:07:55;;;;;;;14.82;9.93;;;1.10;99.90;;;;;;5038891;28;20026;-60
2023/03/11 07:10:41;;;;;;;15.50;9.07;;;1.00;99.90;;;;;;5003115;28;20478;-55
2023/03/11 07:13:28;;;;;;;15.88;9.75;;;1.00;99.90;;;;;;5011552;28;20030;-58
2023/03/11 07:16:20;;;;;;;15.98;8.90;;;1.00;99.90;;;;;;5011152;28;20041;-58
2023/03/11 07:19:06;;;;;;;14.25;8.57;;;1.00;99.90;;;;;;5017850;28;20025;-53
2023/03/11 07:21:51;;;;;;;13.73;8.38;;;1.10;99.90;;;;;;5030870;28;20116;-52
2023/03/11 07:24:37;;;;;;;14.98;8.15;;;1.20;99.90;;;;;;5030616;28;20030;-57
2023/03/11 07:27:23;;;;;;;16.75;8.32;;;1.20;99.90;;;;;;5032478;28;20033;-58
2023/03/11 07:30:10;;;;;;;13.13;9.07;;;1.30;99.90;;;;;;5021820;28;20105;-54
2023/03/11 07:32:57;;;;;;;12.18;9.07;;;1.30;99.90;;;;;;5029757;28;20038;-54
2023/03/11 07:35:43;;;;;;;14.48;9.13;;;1.30;99.90;;;;;;5026411;28;20409;-58
2023/03/11 07:38:29;;;;;;;12.20;8.70;;;1.10;99.90;;;;;;5015606;28;20033;-54
2023/03/11 07:41:15;;;;;;;14.35;9.18;;;1.10;99.90;;;;;;5024160;28;20068;-53
2023/03/11 07:44:04;;;;;;;13.88;8.18;;;1.20;99.90;;;;;;5036593;28;20030;-57
2023/03/11 07:46:50;;;;;;;14.60;8.60;;;1.30;99.90;;;;;;5021836;28;20033;-49
2023/03/11 07:49:36;;;;;;;11.88;7.65;;;1.20;99.90;;;;;;5036822;28;20447;-55
2023/03/11 07:52:21;;;;;;;11.15;7.82;;;1.20;99.90;;;;;;5036912;28;20030;-50
2023/03/11 07:55:08;;;;;;;11.23;7.97;;;1.20;99.90;;;;;;5022613;28;20056;-53
2023/03/11 07:57:54;;;;;;;11.30;7.60;;;1.20;99.90;;;;;;5035143;28;20029;-49
2023/03/11 08:00:40;;;;;;;11.75;7.63;;;1.30;99.90;;;;;;5035952;28;20029;-52
2023/03/11 08:03:26;;;;;;;10.70;7.70;;;1.30;99.90;;;;;;5034600;28;20378;-57
2023/03/11 08:06:20;;;;;;;11.38;7.95;;;1.30;99.90;;;;;;5012352;28;20066;-52
2023/03/11 08:09:08;;;;;;;12.40;7.25;;;1.40;99.90;;;;;;5035842;28;20084;-49
2023/03/11 08:11:54;;;;;;;11.07;7.43;;;1.30;99.90;;;;;;5033141;28;20453;-52
2023/03/11 08:14:40;;;;;;;11.35;7.47;;;1.30;99.90;;;;;;5023973;28;20093;-56
2023/03/11 08:17:26;;;;;;;11.50;7.25;;;1.40;99.90;;;;;;5015999;28;20072;-55
2023/03/11 08:20:12;;;;;;;11.82;7.00;;;1.50;99.90;;;;;;5024353;28;20402;-56
2023/03/11 08:22:58;;;;;;;11.40;7.05;;;1.70;99.90;;;;;;5032383;28;20029;-53
2023/03/11 08:25:44;;;;;;;12.95;7.40;;;1.60;99.90;;;;;;5035329;28;20068;-62
2023/03/11 08:28:30;;;;;;;13.02;8.40;;;1.60;99.90;;;;;;5036221;28;20509;-60
2023/03/11 08:31:19;;;;;;;9.40;7.50;;;1.50;99.90;;;;;;5036009;28;20018;-61
2023/03/11 08:34:08;;;;;;;10.23;7.72;;;1.60;99.90;;;;;;5001945;28;20513;-51
2023/03/11 08:36:54;;;;;;;11.02;7.20;;;1.70;99.90;;;;;;5017137;28;20029;-51
2023/03/11 08:39:40;;;;;;;10.45;7.13;;;1.80;99.90;;;;;;5028864;28;20374;-56
2023/03/11 08:42:25;;;;;;;10.57;6.57;;;1.80;99.90;;;;;;5034010;28;20030;-56
2023/03/11 08:45:11;;;;;;;11.88;7.47;;;1.90;99.90;;;;;;5029081;28;20034;-55
2023/03/11 08:47:57;;;;;;;9.30;6.15;;;2.00;99.90;;;;;;5013708;28;20072;-55
2023/03/11 08:50:44;;;;;;;9.65;6.40;;;2.00;99.90;;;;;;5014498;28;20056;-57
2023/03/11 08:53:30;;;;;;;13.48;6.30;;;2.10;99.90;;;;;;5014770;28;20048;-55
2023/03/11 08:56:16;;;;;;;9.32;6.40;;;2.00;99.90;;;;;;5027923;28;20037;-55
2023/03/11 08:59:02;;;;;;;9.18;6.50;;;1.90;99.90;;;;;;5019470;28;20405;-53
2023/03/11 09:01:48;;;;;;;9.77;6.53;;;1.90;99.90;;;;;;5032425;28;20034;-55
2023/03/11 09:04:36;;;;;;;10.82;7.85;;;1.80;99.90;;;;;;5032506;28;20125;-54
2023/03/11 09:07:22;;;;;;;11.05;7.45;;;1.80;99.90;;;;;;5031758;28;20051;-53
2023/03/11 09:10:13;;;;;;;10.50;7.38;;;1.80;99.90;;;;;;5031806;28;20033;-56
2023/03/11 09:12:59;;;;;;;11.00;7.45;;;1.80;99.90;;;;;;5013327;28;20033;-53
2023/03/11 09:15:47;;;;;;;15.57;7.70;;;1.80;99.90;;;;;;5033202;28;20026;-54
2023/03/11 09:18:34;;;;;;;11.48;7.82;;;1.90;99.90;;;;;;5031153;28;20041;-57
2023/03/11 09:21:20;;;;;;;11.75;7.80;;;2.10;99.90;;;;;;5032337;28;20034;-60
2023/03/11 09:24:06;;;;;;;12.23;7.07;;;2.20;99.90;;;;;;5032148;28;20053;-60
2023/03/11 09:26:52;;;;;;;10.63;7.28;;;2.20;99.90;;;;;;5030656;28;20559;-59
2023/03/11 09:29:38;;;;;;;12.75;7.38;;;2.20;99.90;;;;;;5029247;28;20467;-61
2023/03/11 09:32:24;;;;;;;8.25;6.03;;;2.30;99.90;;;;;;5012990;28;20030;-58
2023/03/11 09:35:10;;;;;;;7.20;6.13;;;2.20;99.90;;;;;;5030080;28;20375;-59
2023/03/11 09:37:56;;;;;;;8.10;6.05;;;2.30;99.90;;;;;;5018731;28;20068;-56
2023/03/11 09:41:05;;;;;;;10.52;6.78;;;2.40;99.90;;;;;;5013411;28;20116;-54
2023/03/11 09:44:02;;;;;;;9.35;6.45;;;2.20;99.90;;;;;;5013441;28;20105;-53
2023/03/11 09:47:03;;;;;;;11.48;6.43;;;2.20;99.90;;;;;;5003440;28;20477;-57
2023/03/11 09:50:11;;;;;;;10.13;6.50;;;2.20;99.90;;;;;;5023381;28;20075;-50
2023/03/11 09:53:24;;;;;;;10.95;7.00;;;2.20;99.90;;;;;;5011265;28;20026;-48
2023/03/11 09:56:19;;;;;;;10.75;6.53;;;2.20;99.90;;;;;;5027948;28;20038;-58
2023/03/11 09:59:13;;;;;;;9.32;6.25;;;2.40;99.90;;;;;;5025737;28;20068;-55
2023/03/11 10:01:59;;;;;;;9.90;6.55;;;2.50;99.90;;;;;;5030511;28;20624;-57
2023/03/11 10:04:51;;;;;;;8.45;5.80;;;2.60;99.90;;;;;;5011856;28;20038;-55
2023/03/11 10:07:40;;;;;;;8.95;6.10;;;2.70;99.90;;;;;;5025538;28;20494;-52
2023/03/11 10:10:31;;;;;;;9.50;6.63;;;2.60;99.90;;;;;;5017297;28;20034;-58
2023/03/11 10:13:24;;;;;;;10.15;6.90;;;2.40;99.90;;;;;;5025283;28;20030;-57
2023/03/11 10:16:30;;;;;;;8.55;6.00;;;2.50;99.90;;;;;;5024001;28;20033;-57
2023/03/11 10:19:28;;;;;;;8.68;6.45;;;2.50;99.90;;;;;;5030241;28;20120;-57
2023/03/11 10:22:33;;;;;;;7.85;6.28;;;2.50;99.90;;;;;;5029351;28;20154;-56
2023/03/11 10:25:27;;;;;;;11.13;6.68;;;2.30;99.90;;;;;;5010785;28;20028;-54
2023/03/11 10:28:17;;;;;;;9.68;6.20;;;2.40;99.90;;;;;;5015874;28;20021;-62
2023/03/11 10:31:17;;;;;;;10.38;6.55;;;2.40;99.90;;;;;;5025704;28;20101;-52
2023/03/11 10:34:24;;;;;;;9.95;6.43;;;2.50;99.90;;;;;;5029345;28;20033;-57
2023/03/11 10:37:16;;;;;;;12.57;6.65;;;2.70;99.90;;;;;;5031474;28;20034;-56
2023/03/11 10:40:14;;;;;;;8.55;6.35;;;2.80;99.90;;;;;;5032338;28;20030;-56
2023/03/11 10:43:04;;;;;;;7.43;5.90;;;2.80;99.90;;;;;;5030216;28;20032;-55
2023/03/11 10:45:52;;;;;;;8.32;6.60;;;2.70;99.90;;;;;;5023532;28;20033;-54
2023/03/11 10:48:38;;;;;;;8.32;6.15;;;2.70;99.90;;;;;;5027524;28;20557;-55
2023/03/11 10:51:30;;;;;;;10.35;6.93;;;2.60;99.90;;;;;;5036759;28;20049;-56
2023/03/11 10:54:45;;;;;;;10.52;7.55;;;2.90;99.90;;;;;;5027754;28;20037;-55
2023/03/11 10:57:36;;;;;;;11.57;6.68;;;2.70;99.90;;;;;;5022595;28;20029;-54
2023/03/11 11:00:29;;;;;;;13.38;7.32;;;2.70;99.90;;;;;;5020773;28;20034;-55
2023/03/11 11:03:20;;;;;;;10.68;7.70;;;3.00;99.90;;;;;;5014278;28;20065;-60
2023/03/11 11:06:20;;;;;;;13.30;8.07;;;2.80;99.90;;;;;;5016801;28;20033;-54
2023/03/11 11:09:29;;;;;;;12.73;7.50;;;2.70;99.90;;;;;;5025542;28;20413;-52
2023/03/11 11:12:19;;;;;;;9.18;6.78;;;2.80;99.90;;;;;;5017113;28;20033;-53
2023/03/11 11:15:19;;;;;;;8.15;6.43;;;2.70;99.90;;;;;;5030124;28;20064;-57
2023/03/11 11:18:23;;;;;;;8.55;6.32;;;2.70;99.90;;;;;;5019676;28;20498;-54
2023/03/11 11:21:26;;;;;;;11.45;6.70;;;2.60;99.90;;;;;;5025676;28;20025;-57
2023/03/11 11:24:25;;;;;;;10.10;6.95;;;2.70;99.90;;;;;;5028104;28;20409;-53
2023/03/11 11:27:13;;;;;;;9.50;6.85;;;2.70;99.90;;;;;;5029072;28;20044;-54
2023/03/11 11:30:08;;;;;;;8.18;6.03;;;2.60;99.90;;;;;;5027978;28;20504;-57
2023/03/11 11:32:54;;;;;;;8.55;5.97;;;2.50;99.90;;;;;;5013071;28;20030;-54
2023/03/11 11:35:53;;;;;;;8.13;6.22;;;2.70;99.90;;;;;;5028383;28;20025;-56
2023/03/11 11:38:40;;;;;;;9.65;7.63;;;2.70;99.90;;;;;;5027958;28;20131;-57
2023/03/11 11:41:28;;;;;;;7.55;6.57;;;2.80;99.90;;;;;;5029124;28;20044;-51
2023/03/11 11:44:19;;;;;;;9.02;6.35;;;3.00;99.90;;;;;;5025475;28;20036;-57
2023/03/11 11:47:16;;;;;;;9.50;6.75;;;3.00;99.90;;;;;;5027408;28;20033;-57
2023/03/11 11:50:15;;;;;;;8.77;6.63;;;3.00;99.90;;;;;;5021291;28;20039;-55
2023/03/11 11:53:23;;;;;;;8.55;6.97;;;3.00;99.90;;;;;;5022424;28;20021;-52
2023/03/11 11:56:09;;;;;;;11.50;7.38;;;3.00;99.90;;;;;;5023925;28;20060;-57
2023/03/11 11:58:55;;;;;;;10.27;6.70;;;3.10;99.90;;;;;;5020668;28;20038;-56
2023/03/11 12:01:56;;;;;;;13.43;9.27;;;3.20;99.90;;;;;;5005339;28;20536;-55
2023/03/11 12:05:03;;;;;;;10.60;8.60;;;3.00;99.90;;;;;;5028175;28;20456;-56
2023/03/11 12:08:11;;;;;;;12.55;8.55;;;3.10;99.90;;;;;;5027995;28;20109;-53
2023/03/11 12:11:09;;;;;;;11.05;8.75;;;3.10;99.90;;;;;;5024478;28;20080;-55
2023/03/11 12:14:03;;;;;;;11.88;8.70;;;3.10;99.90;;;;;;5025217;28;20104;-57
2023/03/11 12:16:57;;;;;;;11.18;8.48;;;2.80;99.90;;;;;;5027043;28;20029;-55
2023/03/11 12:19:51;;;;;;;9.30;8.15;;;3.00;99.90;;;;;;5030841;28;20040;-56
2023/03/11 12:22:37;;;;;;;9.82;7.53;;;3.10;99.90;;;;;;5013985;28;20022;-58
2023/03/11 12:25:37;;;;;;;8.70;7.40;;;3.10;99.90;;;;;;5027152;28;20030;-52
2023/03/11 12:28:30;;;;;;;9.85;7.93;;;3.00;99.90;;;;;;5030446;28;20044;-53
2023/03/11 12:31:16;;;;;;;9.50;7.28;;;2.90;99.90;;;;;;5026985;28;20402;-57
2023/03/11 12:34:04;;;;;;;10.20;7.45;;;2.90;99.90;;;;;;5014367;28;20026;-56
2023/03/11 12:36:51;;;;;;;10.38;8.00;;;3.00;99.90;;;;;;5010040;28;20045;-55
2023/03/11 12:39:37;;;;;;;9.00;7.43;;;3.20;99.90;;;;;;5032333;28;20022;-54
2023/03/11 12:42:37;;;;;;;11.20;7.63;;;3.10;99.90;;;;;;5021414;28;20036;-55
2023/03/11 12:45:49;;;;;;;8.48;6.85;;;3.00;99.90;;;;;;5030557;28;20040;-54
2023/03/11 12:48:40;;;;;;;7.50;6.10;;;3.00;99.90;;;;;;5017547;28;20436;-57
2023/03/11 12:51:26;;;;;;;10.18;6.97;;;3.10;99.90;;;;;;5012103;28;20482;-58
2023/03/11 12:54:33;;;;;;;11.93;7.78;;;3.20;99.90;;;;;;5018577;28;20032;-52
2023/03/11 12:57:19;;;;;;;11.43;7.35;;;3.00;99.90;;;;;;5030709;28;20435;-55
2023/03/11 13:00:21;;;;;;;14.95;7.18;;;2.90;99.90;;;;;;5028636;28;20039;-54
2023/03/11 13:03:32;;;;;;;11.32;7.30;;;3.00;99.90;;;;;;5030102;28;20409;-56
2023/03/11 13:06:39;;;;;;;11.80;8.07;;;3.10;99.90;;;;;;5030390;28;20029;-54
2023/03/11 13:09:26;;;;;;;12.85;8.68;;;3.20;99.90;;;;;;5033422;28;20053;-51
2023/03/11 13:12:47;;;;;;;14.05;9.50;;;3.10;99.90;;;;;;5033367;28;20069;-57
2023/03/11 13:15:36;;;;;;;9.40;6.90;;;3.10;99.90;;;;;;5031580;28;20025;-54
2023/03/11 13:18:24;;;;;;;10.40;6.95;;;3.10;99.90;;;;;;5031285;28;20037;-56
2023/03/11 13:21:31;;;;;;;11.50;7.50;;;3.10;99.90;;;;;;5031830;28;20057;-58
2023/03/11 13:24:20;;;;;;;9.18;7.28;;;2.90;99.90;;;;;;5030098;28;20022;-55
2023/03/11 13:27:37;;;;;;;11.23;6.82;;;3.40;99.90;;;;;;5032449;28;20155;-58
2023/03/11 13:30:31;;;;;;;8.90;6.60;;;3.60;99.90;;;;;;5032266;28;20025;-58
2023/03/11 13:33:54;;;;;;;8.13;5.97;;;3.70;99.90;;;;;;5032869;28;20401;-56
2023/03/11 13:37:03;;;;;;;11.30;5.65;;;3.70;99.90;;;;;;5013231;28;20120;-57
2023/03/11 13:39:53;;;;;;;6.65;4.88;;;3.90;99.50;;;;;;5021330;28;20060;-55
2023/03/11 13:42:50;;;;;;;7.03;5.18;;;3.70;98.30;;;;;;5014155;28;20450;-55
2023/03/11 13:45:37;;;;;;;8.07;5.97;;;3.70;98.40;;;;;;5024961;28;20022;-58
2023/03/11 13:48:35;;;;;;;7.25;5.95;;;3.60;99.20;;;;;;5018352;28;20120;-56
2023/03/11 13:51:36;;;;;;;8.38;6.18;;;3.50;99.10;;;;;;5046270;28;20033;-55
2023/03/11 13:54:28;;;;;;;6.82;5.10;;;3.50;98.90;;;;;;5036940;28;20029;-53
2023/03/11 13:57:34;;;;;;;6.28;5.13;;;3.30;98.90;;;;;;5050084;28;20029;-57
2023/03/11 14:00:27;;;;;;;8.23;5.25;;;3.30;98.80;;;;;;5021045;28;20029;-51
2023/03/11 14:03:14;;;;;;;7.07;5.00;;;3.40;99.10;;;;;;5028249;28;20353;-56
2023/03/11 14:06:03;;;;;;;5.60;4.70;;;3.30;98.90;;;;;;5011107;28;20037;-56
2023/03/11 14:08:55;;;;;;;6.18;4.78;;;3.50;99.10;;;;;;5001684;28;20115;-56
2023/03/11 14:11:46;;;;;;;6.05;4.28;;;3.70;98.50;;;;;;5027103;28;20058;-54
2023/03/11 14:14:57;;;;;;;6.93;4.40;;;4.10;97.60;;;;;;5025832;28;20397;-54
2023/03/11 14:17:43;;;;;;;5.50;3.70;;;4.50;96.60;;;;;;5027805;28;20029;-56
2023/03/11 14:20:29;;;;;;;5.38;4.20;;;4.30;96.30;;;;;;5028518;28;20029;-51
2023/03/11 14:23:18;;;;;;;4.85;3.88;;;4.50;96.90;;;;;;5022130;28;20493;-55
2023/03/11 14:26:12;;;;;;;5.57;4.28;;;4.40;96.90;;;;;;5017496;28;20105;-53
2023/03/11 14:29:07;;;;;;;8.52;4.50;;;4.60;97.20;;;;;;5021195;28;20407;-53
2023/03/11 14:31:54;;;;;;;10.98;4.10;;;4.70;97.20;;;;;;5030171;28;20378;-57
2023/03/11 14:34:40;;;;;;;8.10;5.18;;;4.40;97.90;;;;;;5029807;28;20442;-56
2023/03/11 14:37:31;;;;;;;4.57;4.05;;;4.50;98.20;;;;;;5026680;28;20037;-54
2023/03/11 14:40:30;;;;;;;6.15;4.38;;;4.90;97.80;;;;;;5027334;28;20048;-53
2023/03/11 14:43:17;;;;;;;8.57;4.55;;;4.90;97.80;;;;;;5026068;28;20425;-51
2023/03/11 14:46:04;;;;;;;7.97;4.70;;;4.60;97.70;;;;;;5023166;28;20334;-55
2023/03/11 14:48:52;;;;;;;8.45;4.55;;;4.10;98.70;;;;;;5009599;28;20479;-52
2023/03/11 14:51:38;;;;;;;6.68;3.90;;;4.20;98.80;;;;;;5026432;28;20037;-56
2023/03/11 14:54:28;;;;;;;8.45;4.75;;;4.90;98.00;;;;;;5013896;28;20041;-55